createdAt,value
2019-05-20T00:02:26.022Z,17.30
2019-05-20T00:07:23.920Z,17.97
2019-05-20T00:12:26.465Z,15.37
2019-05-20T00:17:28.488Z,15.50
2019-05-20T00:22:30.532Z,16.20
2019-05-20T00:27:32.611Z,17.63
2019-05-20T00:32:41.210Z,17.47
2019-05-20T00:37:39.003Z,16.80
2019-05-20T00:42:41.120Z,15.27
2019-05-20T00:47:43.373Z,15.00
2019-05-20T00:52:45.313Z,15.47
2019-05-20T00:57:47.811Z,14.93
2019-05-20T01:02:56.894Z,14.40
2019-05-20T01:07:53.729Z,13.93
2019-05-20T01:12:55.616Z,14.70
2019-05-20T01:17:58.424Z,15.27
2019-05-20T01:23:01.645Z,15.70
2019-05-20T01:28:03.775Z,14.37
2019-05-20T01:33:13.694Z,14.37
2019-05-20T01:38:10.053Z,15.60
2019-05-20T01:43:12.442Z,15.47
2019-05-20T01:48:15.013Z,16.47
2019-05-20T01:53:17.649Z,17.43
2019-05-20T01:58:19.713Z,16.80
2019-05-20T02:03:31.330Z,18.00
2019-05-20T02:08:26.401Z,17.50
2019-05-20T02:13:48.023Z,16.77
2019-05-20T02:18:50.013Z,16.77
2019-05-20T02:23:52.475Z,16.33
2019-05-20T02:28:54.279Z,17.90
2019-05-20T02:33:56.148Z,19.47
2019-05-20T02:38:58.077Z,19.47
2019-05-20T02:44:00.741Z,21.63
2019-05-20T02:49:03.261Z,19.60
2019-05-20T02:54:05.151Z,20.67
2019-05-20T02:59:06.958Z,17.13
2019-05-20T03:04:12.158Z,16.13
2019-05-20T03:09:13.134Z,15.97
2019-05-20T03:14:15.075Z,16.10
2019-05-20T03:19:17.363Z,18.70
2019-05-20T03:24:19.855Z,22.27
2019-05-20T03:29:21.755Z,21.87
2019-05-20T03:34:44.100Z,19.67
2019-05-20T03:39:28.245Z,17.13
2019-05-20T03:44:30.763Z,16.63
2019-05-20T03:49:33.029Z,17.77
2019-05-20T03:54:35.504Z,18.07
2019-05-20T03:59:37.725Z,18.00
2019-05-20T04:04:40.313Z,17.50
2019-05-20T04:09:42.158Z,17.30
2019-05-20T04:14:44.599Z,17.20
2019-05-20T04:19:46.782Z,15.93
2019-05-20T04:24:49.034Z,16.90
2019-05-20T04:29:50.956Z,16.93
2019-05-20T04:34:53.422Z,17.37
2019-05-20T04:39:55.837Z,17.40
2019-05-20T04:44:57.844Z,17.30
2019-05-20T04:50:00.484Z,18.53
2019-05-20T04:55:02.424Z,18.23
2019-05-20T05:00:06.180Z,18.47
2019-05-20T05:05:08.528Z,18.37
2019-05-20T05:10:11.514Z,19.03
2019-05-20T05:15:14.048Z,18.43
2019-05-20T05:20:18.453Z,18.27
2019-05-20T05:25:20.888Z,17.43
2019-05-20T05:30:22.911Z,16.77
2019-05-20T05:35:25.025Z,16.27
2019-05-20T05:40:30.625Z,16.33
2019-05-20T05:45:33.119Z,15.70
2019-05-20T05:50:35.503Z,16.47
2019-05-20T05:55:37.379Z,16.20
2019-05-20T06:00:39.225Z,16.53
2019-05-20T06:05:41.452Z,17.80
2019-05-20T06:10:43.376Z,14.93
2019-05-20T06:15:46.470Z,15.03
2019-05-20T06:20:49.055Z,15.40
2019-05-20T06:25:51.474Z,17.63
2019-05-20T06:30:53.517Z,14.67
2019-05-20T06:35:55.785Z,13.17
2019-05-20T06:40:57.814Z,11.93
2019-05-20T06:45:59.821Z,14.30
2019-05-20T06:51:01.781Z,12.90
2019-05-20T06:56:04.054Z,12.27
2019-05-20T07:01:06.517Z,13.63
2019-05-20T07:06:08.909Z,13.27
2019-05-20T07:11:11.132Z,13.27
2019-05-20T07:16:13.175Z,11.70
2019-05-20T07:21:16.577Z,13.93
2019-05-20T07:26:18.510Z,10.00
2019-05-20T07:31:20.359Z,9.63
2019-05-20T07:36:22.473Z,9.97
2019-05-20T07:41:24.727Z,9.07
2019-05-20T07:46:27.750Z,8.40
2019-05-20T07:51:30.904Z,14.13
2019-05-20T07:56:37.140Z,7.50
2019-05-20T08:01:40.091Z,7.83
2019-05-20T08:06:42.067Z,7.77
2019-05-20T08:11:43.949Z,6.80
2019-05-20T08:16:45.850Z,7.20
2019-05-20T08:21:48.615Z,6.97
2019-05-20T08:26:50.517Z,6.23
2019-05-20T08:31:52.836Z,6.10
2019-05-20T08:36:55.809Z,6.57
2019-05-20T08:41:57.638Z,7.37
2019-05-20T08:46:59.444Z,6.50
2019-05-20T08:52:01.266Z,6.33
2019-05-20T08:57:03.177Z,5.90
2019-05-20T09:02:05.590Z,5.80
2019-05-20T09:07:07.987Z,6.17
2019-05-20T09:12:10.585Z,6.00
2019-05-20T09:17:12.885Z,5.97
2019-05-20T09:22:14.964Z,5.70
2019-05-20T09:27:18.611Z,6.27
2019-05-20T09:32:21.390Z,6.13
2019-05-20T09:37:24.168Z,6.10
2019-05-20T09:42:26.105Z,6.00
2019-05-20T09:47:28.022Z,6.40
2019-05-20T09:52:30.617Z,6.03
2019-05-20T09:57:33.171Z,5.73
2019-05-20T10:02:38.182Z,5.97
2019-05-20T10:07:39.553Z,5.00
2019-05-20T10:12:46.418Z,4.37
2019-05-20T10:17:45.265Z,4.37
2019-05-20T10:22:47.517Z,4.43
2019-05-20T10:27:49.715Z,5.57
2019-05-20T10:32:52.216Z,5.00
2019-05-20T10:37:55.238Z,5.15
2019-05-20T10:42:57.138Z,5.97
2019-05-20T10:47:59.378Z,5.30
2019-05-20T10:53:01.464Z,5.53
2019-05-20T10:58:03.287Z,5.40
2019-05-20T11:03:05.828Z,5.60
2019-05-20T11:08:07.762Z,4.67
2019-05-20T11:13:09.684Z,5.00
2019-05-20T11:18:11.660Z,4.93
2019-05-20T11:23:13.624Z,4.60
2019-05-20T11:28:15.469Z,5.03
2019-05-20T11:33:17.303Z,5.17
2019-05-20T11:38:19.584Z,6.23
2019-05-20T11:43:21.517Z,5.97
2019-05-20T11:48:24.034Z,5.83
2019-05-20T11:53:26.102Z,7.40
2019-05-20T11:58:28.004Z,6.20
2019-05-20T12:03:31.100Z,6.30
2019-05-20T12:08:33.384Z,6.43
2019-05-20T12:13:35.249Z,6.43
2019-05-20T12:18:37.364Z,7.07
2019-05-20T12:23:39.312Z,6.60
2019-05-20T12:28:41.959Z,6.60
2019-05-20T12:33:44.668Z,6.50
2019-05-20T12:38:47.089Z,6.43
2019-05-20T12:44:09.702Z,6.10
2019-05-20T12:48:53.116Z,6.23
2019-05-20T12:53:55.022Z,6.40
2019-05-20T12:58:56.967Z,6.73
2019-05-20T13:03:59.855Z,7.00
2019-05-20T13:09:01.914Z,7.67
2019-05-20T13:14:04.683Z,6.77
2019-05-20T13:19:07.154Z,6.50
2019-05-20T13:24:10.075Z,7.20
2019-05-20T13:29:11.987Z,7.40
2019-05-20T13:34:13.850Z,7.30
2019-05-20T13:39:16.116Z,9.33
2019-05-20T13:44:18.076Z,6.90
2019-05-20T13:49:19.875Z,7.17
2019-05-20T13:54:22.057Z,7.53
2019-05-20T13:59:24.371Z,7.30
2019-05-20T14:04:26.789Z,7.73
2019-05-20T14:09:28.923Z,8.10
2019-05-20T14:14:30.864Z,8.17
2019-05-20T14:19:32.889Z,8.33
2019-05-20T14:24:36.340Z,7.40
2019-05-20T14:29:39.164Z,8.60
2019-05-20T14:34:41.630Z,8.50
2019-05-20T14:39:43.955Z,9.97
2019-05-20T14:44:46.004Z,9.37
2019-05-20T14:49:47.900Z,10.13
2019-05-20T14:54:49.783Z,9.70
2019-05-20T14:59:52.482Z,10.07
2019-05-20T15:04:54.504Z,12.60
2019-05-20T15:09:56.730Z,10.00
2019-05-20T15:14:58.544Z,10.93
2019-05-20T15:20:00.905Z,10.53
2019-05-20T15:25:04.481Z,6.90
2019-05-20T15:30:08.315Z,8.47
2019-05-20T15:35:10.921Z,10.43
2019-05-20T15:40:13.414Z,11.03
2019-05-20T15:45:15.758Z,11.63
2019-05-20T15:50:18.537Z,13.90
2019-05-20T15:55:20.419Z,14.20
2019-05-20T16:00:23.609Z,8.67
2019-05-20T16:05:25.868Z,9.90
2019-05-20T16:10:27.797Z,10.30
2019-05-20T16:15:30.044Z,11.83
2019-05-20T16:20:32.107Z,12.80
2019-05-20T16:25:34.201Z,11.50
2019-05-20T16:30:36.664Z,10.97
2019-05-20T16:35:39.285Z,11.10
2019-05-20T16:40:41.340Z,12.93
2019-05-20T16:45:43.622Z,13.37
2019-05-20T16:50:46.137Z,13.00
2019-05-20T16:55:48.349Z,13.77
2019-05-20T17:00:50.619Z,12.70
2019-05-20T17:05:53.075Z,12.97
2019-05-20T17:10:55.497Z,13.87
2019-05-20T17:15:57.324Z,13.77
2019-05-20T17:20:59.392Z,13.13
2019-05-20T17:26:01.341Z,12.20
2019-05-20T17:31:03.473Z,10.83
2019-05-20T17:36:05.326Z,10.33
2019-05-20T17:41:07.861Z,10.23
2019-05-20T17:46:10.789Z,10.30
2019-05-20T17:51:13.040Z,10.63
2019-05-20T17:56:15.148Z,9.50
2019-05-20T18:01:17.011Z,9.40
2019-05-20T18:06:19.245Z,9.97
2019-05-20T18:11:21.401Z,9.87
2019-05-20T18:16:23.287Z,11.63
2019-05-20T18:21:25.217Z,9.47
2019-05-20T18:26:27.773Z,10.50
2019-05-20T18:31:32.755Z,11.23
2019-05-20T18:36:34.648Z,11.53
2019-05-20T18:41:37.713Z,12.73
2019-05-20T18:46:40.368Z,14.00
2019-05-20T18:51:43.119Z,15.97
2019-05-20T18:56:45.824Z,17.47
2019-05-20T19:02:03.845Z,16.17
2019-05-20T19:06:52.516Z,18.60
2019-05-20T19:11:54.814Z,18.30
2019-05-20T19:16:56.901Z,16.57
2019-05-20T19:21:58.859Z,17.47
2019-05-20T19:27:00.762Z,17.13
2019-05-20T19:32:03.192Z,16.50
2019-05-20T19:37:05.012Z,15.83
2019-05-20T19:42:07.224Z,16.90
2019-05-20T19:52:10.102Z,16.40
2019-05-20T19:57:13.792Z,16.43
2019-05-20T20:02:18.057Z,14.53
2019-05-20T20:07:20.514Z,14.37
2019-05-20T20:12:23.332Z,13.70
2019-05-20T20:17:25.824Z,13.70
2019-05-20T20:22:28.717Z,14.73
2019-05-20T20:27:32.014Z,15.60
2019-05-20T20:32:38.098Z,16.47
2019-05-20T20:37:38.639Z,15.63
2019-05-20T20:42:41.875Z,15.60
2019-05-20T20:47:44.011Z,15.73
2019-05-20T20:52:47.087Z,15.10
2019-05-20T20:57:49.447Z,15.17
2019-05-20T21:02:53.854Z,14.80
2019-05-20T21:07:56.778Z,13.30
2019-05-20T21:12:59.203Z,12.40
2019-05-20T21:18:01.347Z,12.17
2019-05-20T21:23:04.618Z,12.50
2019-05-20T21:28:13.354Z,11.93
2019-05-20T21:33:23.932Z,12.30
2019-05-20T21:38:33.949Z,12.77
2019-05-20T21:43:37.269Z,12.50
2019-05-20T21:48:39.448Z,12.27
2019-05-20T21:53:41.866Z,12.03
2019-05-20T21:58:44.008Z,12.20
2019-05-20T22:03:46.667Z,13.27
2019-05-20T22:08:49.818Z,12.30
2019-05-20T22:13:51.963Z,12.97
2019-05-20T22:18:54.913Z,13.37
2019-05-20T22:24:00.048Z,12.33
2019-05-20T22:29:02.765Z,13.20
2019-05-20T22:34:04.889Z,14.17
2019-05-20T22:39:08.454Z,13.47
2019-05-20T22:44:10.739Z,13.10
2019-05-20T22:49:13.398Z,13.53
2019-05-20T22:54:16.508Z,14.13
2019-05-20T22:59:19.076Z,15.07
2019-05-20T23:04:21.876Z,14.70
2019-05-20T23:09:24.639Z,16.87
2019-05-20T23:14:27.527Z,16.17
2019-05-20T23:19:29.740Z,16.13
2019-05-20T23:24:33.818Z,15.57
2019-05-20T23:29:36.662Z,15.77
2019-05-20T23:34:38.925Z,15.67
2019-05-20T23:39:41.225Z,16.00
2019-05-20T23:44:43.531Z,17.40
2019-05-20T23:49:45.980Z,18.60
2019-05-20T23:54:48.491Z,17.30
2019-05-20T23:59:50.755Z,18.27
